createdAt,value
2019-03-21T00:01:41.740Z,63.23
2019-03-21T00:04:15.425Z,63.87
2019-03-21T00:06:47.712Z,63.00
2019-03-21T00:09:20.829Z,65.17
2019-03-21T00:12:02.684Z,68.80
2019-03-21T00:15:02.233Z,66.20
2019-03-21T00:17:39.167Z,66.67
2019-03-21T00:20:15.319Z,67.33
2019-03-21T00:22:47.627Z,69.47
2019-03-21T00:25:23.081Z,68.97
2019-03-21T00:27:55.406Z,69.80
2019-03-21T00:30:27.763Z,68.13
2019-03-21T00:33:00.773Z,69.77
2019-03-21T00:35:33.180Z,68.07
2019-03-21T00:38:05.559Z,68.70
2019-03-21T00:40:40.980Z,68.47
2019-03-21T00:43:14.245Z,69.53
2019-03-21T00:45:46.607Z,71.87
2019-03-21T00:48:20.810Z,68.50
2019-03-21T00:50:53.173Z,69.20
2019-03-21T00:53:25.977Z,68.73
2019-03-21T00:55:58.410Z,65.73
2019-03-21T00:58:30.914Z,69.57
2019-03-21T01:01:03.431Z,70.47
2019-03-21T01:03:35.746Z,66.20
2019-03-21T01:06:08.123Z,72.50
2019-03-21T01:08:40.390Z,69.63
2019-03-21T01:11:12.667Z,68.07
2019-03-21T01:13:44.978Z,69.17
2019-03-21T01:16:17.280Z,67.10
2019-03-21T01:18:49.590Z,68.07
2019-03-21T01:21:21.956Z,67.27
2019-03-21T01:23:54.193Z,66.87
2019-03-21T01:26:26.548Z,65.30
2019-03-21T01:28:58.942Z,63.50
2019-03-21T01:31:31.192Z,64.63
2019-03-21T01:34:03.455Z,63.90
2019-03-21T01:36:36.953Z,68.47
2019-03-21T01:39:09.861Z,66.73
2019-03-21T01:41:42.173Z,65.20
2019-03-21T01:44:14.495Z,61.87
2019-03-21T01:46:46.735Z,65.10
2019-03-21T01:49:19.085Z,67.83
2019-03-21T01:51:51.345Z,65.57
2019-03-21T01:54:23.777Z,65.17
2019-03-21T01:56:56.161Z,66.50
2019-03-21T01:59:28.711Z,66.63
2019-03-21T02:02:01.127Z,65.47
2019-03-21T02:04:33.345Z,65.87
2019-03-21T02:07:05.889Z,65.87
2019-03-21T02:09:38.251Z,64.50
2019-03-21T02:12:10.570Z,69.93
2019-03-21T02:14:51.847Z,64.43
2019-03-21T02:17:17.924Z,68.00
2019-03-21T02:19:50.342Z,65.30
2019-03-21T02:22:22.566Z,67.67
2019-03-21T02:24:54.880Z,64.93
2019-03-21T02:27:27.146Z,69.87
2019-03-21T02:29:59.468Z,65.20
2019-03-21T02:32:31.801Z,61.67
2019-03-21T02:35:04.304Z,64.33
2019-03-21T02:37:36.530Z,62.80
2019-03-21T02:40:12.898Z,62.73
2019-03-21T02:42:45.156Z,64.97
2019-03-21T02:45:18.218Z,62.03
2019-03-21T02:47:50.546Z,68.37
2019-03-21T02:50:30.257Z,63.00
2019-03-21T02:53:02.831Z,61.67
2019-03-21T02:55:35.156Z,60.40
2019-03-21T02:58:07.507Z,58.93
2019-03-21T03:00:39.873Z,61.83
2019-03-21T03:03:13.299Z,58.90
2019-03-21T03:05:45.498Z,58.33
2019-03-21T03:08:17.919Z,60.93
2019-03-21T03:10:53.596Z,57.03
2019-03-21T03:13:25.981Z,56.20
2019-03-21T03:15:58.295Z,54.77
2019-03-21T03:18:30.630Z,59.23
2019-03-21T03:21:02.891Z,57.77
2019-03-21T03:23:35.313Z,56.63
2019-03-21T03:26:07.629Z,55.90
2019-03-21T03:28:40.083Z,55.83
2019-03-21T03:31:12.490Z,58.37
2019-03-21T03:33:46.089Z,59.60
2019-03-21T03:36:18.404Z,56.60
2019-03-21T03:38:50.759Z,56.30
2019-03-21T03:41:23.094Z,55.67
2019-03-21T03:43:55.434Z,56.40
2019-03-21T03:46:27.647Z,55.83
2019-03-21T03:49:01.160Z,56.57
2019-03-21T03:51:33.437Z,51.40
2019-03-21T03:54:05.798Z,59.07
2019-03-21T03:56:38.015Z,54.03
2019-03-21T03:59:10.561Z,58.17
2019-03-21T04:01:42.789Z,57.13
2019-03-21T04:04:15.052Z,56.50
2019-03-21T04:06:47.263Z,54.97
2019-03-21T04:09:19.644Z,57.87
2019-03-21T04:11:51.912Z,58.00
2019-03-21T04:14:24.152Z,54.57
2019-03-21T04:16:56.495Z,56.00
2019-03-21T04:19:28.770Z,55.37
2019-03-21T04:22:01.228Z,58.17
2019-03-21T04:24:33.460Z,57.43
2019-03-21T04:27:05.752Z,52.93
2019-03-21T04:29:38.308Z,56.30
2019-03-21T04:32:12.265Z,58.93
2019-03-21T04:34:44.515Z,56.83
2019-03-21T04:37:18.087Z,54.87
2019-03-21T04:39:50.463Z,52.60
2019-03-21T04:42:22.680Z,52.20
2019-03-21T04:44:55.143Z,52.57
2019-03-21T04:47:27.462Z,52.33
2019-03-21T04:50:01.218Z,52.07
2019-03-21T04:52:33.514Z,51.70
2019-03-21T04:55:06.342Z,52.07
2019-03-21T04:57:38.725Z,50.10
2019-03-21T05:00:15.982Z,48.30
2019-03-21T05:02:48.535Z,48.90
2019-03-21T05:05:20.775Z,48.67
2019-03-21T05:07:53.071Z,48.30
2019-03-21T05:10:25.445Z,50.50
2019-03-21T05:12:57.819Z,49.00
2019-03-21T05:15:33.875Z,46.00
2019-03-21T05:18:16.998Z,45.33
2019-03-21T05:20:49.319Z,40.80
2019-03-21T05:23:21.530Z,40.57
2019-03-21T05:25:53.850Z,38.90
2019-03-21T05:28:26.138Z,36.60
2019-03-21T05:31:13.710Z,33.57
2019-03-21T05:33:45.933Z,34.10
2019-03-21T05:36:18.183Z,34.63
2019-03-21T05:38:50.454Z,32.67
2019-03-21T05:41:22.942Z,32.63
2019-03-21T05:44:03.675Z,36.03
2019-03-21T05:46:35.981Z,37.43
2019-03-21T05:49:08.216Z,40.30
2019-03-21T05:51:40.682Z,38.83
2019-03-21T05:54:12.940Z,39.07
2019-03-21T05:56:45.227Z,39.23
2019-03-21T05:59:17.435Z,39.57
2019-03-21T06:01:49.807Z,38.50
2019-03-21T06:04:22.257Z,39.90
2019-03-21T06:07:22.685Z,39.03
2019-03-21T06:09:55.037Z,38.87
2019-03-21T06:12:27.361Z,41.53
2019-03-21T06:15:02.222Z,43.67
2019-03-21T06:17:36.169Z,43.23
2019-03-21T06:20:49.871Z,44.93
2019-03-21T06:24:33.482Z,42.40
2019-03-21T06:27:32.387Z,37.47
2019-03-21T06:30:05.251Z,40.00
2019-03-21T06:32:37.557Z,40.10
2019-03-21T06:35:23.251Z,40.20
2019-03-21T06:37:56.762Z,43.73
2019-03-21T06:40:30.329Z,46.30
2019-03-21T06:43:02.549Z,43.07
2019-03-21T06:45:35.196Z,40.37
2019-03-21T06:48:07.497Z,41.07
2019-03-21T06:50:39.929Z,38.20
2019-03-21T06:53:12.250Z,40.57
2019-03-21T06:55:44.666Z,39.20
2019-03-21T06:58:16.945Z,42.10
2019-03-21T07:00:49.260Z,43.17
2019-03-21T07:03:21.683Z,49.40
2019-03-21T07:05:54.091Z,45.73
2019-03-21T07:08:26.301Z,44.10
2019-03-21T07:10:58.554Z,44.23
2019-03-21T07:13:30.893Z,44.93
2019-03-21T07:16:03.509Z,42.97
2019-03-21T07:18:35.944Z,41.67
2019-03-21T07:21:08.564Z,41.27
2019-03-21T07:23:40.898Z,42.57
2019-03-21T07:26:13.373Z,41.70
2019-03-21T07:28:45.610Z,40.10
2019-03-21T07:31:18.113Z,40.17
2019-03-21T07:33:50.583Z,39.30
2019-03-21T07:36:23.113Z,39.93
2019-03-21T07:38:55.912Z,36.83
2019-03-21T07:41:28.165Z,37.77
2019-03-21T07:44:00.507Z,39.00
2019-03-21T07:46:32.936Z,37.07
2019-03-21T07:49:05.222Z,35.73
2019-03-21T07:51:37.685Z,37.53
2019-03-21T07:54:10.454Z,37.40
2019-03-21T07:56:42.943Z,35.17
2019-03-21T07:59:15.366Z,37.83
2019-03-21T08:01:47.600Z,35.60
2019-03-21T08:04:19.863Z,35.23
2019-03-21T08:06:52.128Z,36.40
2019-03-21T08:09:24.464Z,39.80
2019-03-21T08:11:57.862Z,33.97
2019-03-21T08:14:30.179Z,35.70
2019-03-21T08:17:02.706Z,38.07
2019-03-21T08:19:35.122Z,38.30
2019-03-21T08:22:07.362Z,35.03
2019-03-21T08:24:39.785Z,37.20
2019-03-21T08:27:12.016Z,38.10
2019-03-21T08:29:44.522Z,32.70
2019-03-21T08:32:17.084Z,36.97
2019-03-21T08:34:49.341Z,33.33
2019-03-21T08:37:21.678Z,32.77
2019-03-21T08:39:53.980Z,36.67
2019-03-21T08:42:26.590Z,37.43
2019-03-21T08:44:58.995Z,33.07
2019-03-21T08:47:31.320Z,29.60
2019-03-21T08:50:05.446Z,26.53
2019-03-21T08:52:37.723Z,26.90
2019-03-21T08:55:11.055Z,22.77
2019-03-21T08:57:45.272Z,25.53
2019-03-21T09:00:18.677Z,23.97
2019-03-21T09:02:50.928Z,22.50
2019-03-21T09:05:23.196Z,24.93
2019-03-21T09:07:55.636Z,23.20
2019-03-21T09:10:28.217Z,25.60
2019-03-21T09:13:00.398Z,23.37
2019-03-21T09:15:32.689Z,21.00
2019-03-21T09:18:05.141Z,22.50
2019-03-21T09:20:37.486Z,22.70
2019-03-21T09:23:09.750Z,26.07
2019-03-21T09:25:44.743Z,24.27
2019-03-21T09:28:17.323Z,26.13
2019-03-21T09:30:50.757Z,24.33
2019-03-21T09:33:34.502Z,25.47
2019-03-21T09:36:06.920Z,25.33
2019-03-21T09:38:39.487Z,21.53
2019-03-21T09:41:11.733Z,20.73
2019-03-21T09:43:44.136Z,21.30
2019-03-21T09:46:16.428Z,21.73
2019-03-21T09:48:48.825Z,19.33
2019-03-21T09:51:30.511Z,22.57
2019-03-21T09:53:55.442Z,20.70
2019-03-21T09:56:27.697Z,18.07
2019-03-21T09:59:00.084Z,21.90
2019-03-21T10:01:32.714Z,21.67
2019-03-21T10:04:04.969Z,22.33
2019-03-21T10:06:38.404Z,22.00
2019-03-21T10:09:10.730Z,21.27
2019-03-21T10:11:43.142Z,22.27
2019-03-21T10:14:15.699Z,22.80
2019-03-21T10:16:48.273Z,21.37
2019-03-21T10:19:20.659Z,22.60
2019-03-21T10:21:52.963Z,23.63
2019-03-21T10:24:26.437Z,23.13
2019-03-21T10:26:58.801Z,23.50
2019-03-21T10:29:31.089Z,24.57
2019-03-21T10:32:13.921Z,24.87
2019-03-21T10:34:37.672Z,22.90
2019-03-21T10:37:10.242Z,22.70
2019-03-21T10:39:42.526Z,23.60
2019-03-21T10:42:14.792Z,25.27
2019-03-21T10:44:47.082Z,24.13
2019-03-21T10:47:19.483Z,26.60
2019-03-21T10:49:51.717Z,25.07
2019-03-21T10:52:23.973Z,28.17
2019-03-21T10:54:56.214Z,29.10
2019-03-21T10:57:28.548Z,28.30
2019-03-21T11:00:01.969Z,27.50
2019-03-21T11:02:36.476Z,26.97
2019-03-21T11:05:08.820Z,24.53
2019-03-21T11:07:41.121Z,28.00
2019-03-21T11:10:13.669Z,27.93
2019-03-21T11:12:46.009Z,27.57
2019-03-21T11:15:18.328Z,26.70
2019-03-21T11:17:51.016Z,26.53
2019-03-21T11:20:32.840Z,27.27
2019-03-21T11:23:06.471Z,26.17
2019-03-21T11:25:38.968Z,26.67
2019-03-21T11:28:11.853Z,25.47
2019-03-21T11:30:45.654Z,25.67
2019-03-21T11:33:19.649Z,24.03
2019-03-21T11:35:52.259Z,25.93
2019-03-21T11:38:24.805Z,25.23
2019-03-21T11:40:57.166Z,28.23
2019-03-21T11:43:31.263Z,24.77
2019-03-21T11:46:03.693Z,28.17
2019-03-21T11:48:36.141Z,25.30
2019-03-21T11:51:08.582Z,26.63
2019-03-21T11:53:40.996Z,25.97
2019-03-21T11:56:13.395Z,25.90
2019-03-21T11:58:45.827Z,23.70
2019-03-21T12:01:18.440Z,25.03
2019-03-21T12:03:50.939Z,24.00
2019-03-21T12:06:23.292Z,25.00
2019-03-21T12:08:55.701Z,23.60
2019-03-21T12:11:28.405Z,26.00
2019-03-21T12:14:00.935Z,25.47
2019-03-21T12:16:33.198Z,25.20
2019-03-21T12:19:06.648Z,24.60
2019-03-21T12:21:42.913Z,24.60
2019-03-21T12:24:15.547Z,23.53
2019-03-21T12:26:50.962Z,25.10
2019-03-21T12:29:23.618Z,22.63
2019-03-21T12:31:56.253Z,22.20
2019-03-21T12:34:28.659Z,23.70
2019-03-21T12:37:00.949Z,21.00
2019-03-21T12:39:33.190Z,21.87
2019-03-21T12:42:05.577Z,21.80
2019-03-21T12:44:38.108Z,21.07
2019-03-21T12:47:10.433Z,20.40
2019-03-21T12:49:42.723Z,18.70
2019-03-21T12:52:15.172Z,19.80
2019-03-21T12:54:47.671Z,20.57
2019-03-21T12:57:38.801Z,20.63
2019-03-21T13:00:11.524Z,19.00
2019-03-21T13:02:43.839Z,17.23
2019-03-21T13:05:27.137Z,19.23
2019-03-21T13:07:59.670Z,17.30
2019-03-21T13:10:31.977Z,17.17
2019-03-21T13:13:06.201Z,17.23
2019-03-21T13:15:38.732Z,18.23
2019-03-21T13:18:11.215Z,17.27
2019-03-21T13:20:43.860Z,17.60
2019-03-21T13:23:16.140Z,17.20
2019-03-21T13:25:48.419Z,17.03
2019-03-21T13:28:20.732Z,17.67
2019-03-21T13:30:53.218Z,17.77
2019-03-21T13:33:25.542Z,18.77
2019-03-21T13:35:57.913Z,16.73
2019-03-21T13:38:30.399Z,18.20
2019-03-21T13:41:02.864Z,20.07
2019-03-21T13:43:35.278Z,17.57
2019-03-21T13:46:07.733Z,18.17
2019-03-21T13:48:40.282Z,18.70
2019-03-21T13:51:12.520Z,19.93
2019-03-21T13:53:44.747Z,19.60
2019-03-21T13:56:17.106Z,18.47
2019-03-21T13:58:49.695Z,18.07
2019-03-21T14:01:22.176Z,19.87
2019-03-21T14:03:54.612Z,20.17
2019-03-21T14:06:27.157Z,18.93
2019-03-21T14:08:59.576Z,19.70
2019-03-21T14:11:32.125Z,20.67
2019-03-21T14:14:04.489Z,19.73
2019-03-21T14:16:37.020Z,19.17
2019-03-21T14:19:09.568Z,19.67
2019-03-21T14:21:42.160Z,22.27
2019-03-21T14:24:14.425Z,20.00
2019-03-21T14:26:46.954Z,21.47
2019-03-21T14:29:19.670Z,21.93
2019-03-21T14:31:53.465Z,21.37
2019-03-21T14:34:25.988Z,22.10
2019-03-21T14:36:58.373Z,23.07
2019-03-21T14:39:33.748Z,20.90
2019-03-21T14:42:06.477Z,18.27
2019-03-21T14:44:38.680Z,20.50
2019-03-21T14:47:11.004Z,19.67
2019-03-21T14:49:43.454Z,21.60
2019-03-21T14:52:15.886Z,19.90
2019-03-21T14:54:48.332Z,21.07
2019-03-21T14:57:21.597Z,19.40
2019-03-21T14:59:54.545Z,21.23
2019-03-21T15:02:26.802Z,19.30
2019-03-21T15:04:59.188Z,20.63
2019-03-21T15:07:31.485Z,20.37
2019-03-21T15:10:04.159Z,16.70
2019-03-21T15:12:36.500Z,20.73
2019-03-21T15:15:10.270Z,19.80
2019-03-21T15:17:42.652Z,19.43
2019-03-21T15:20:16.230Z,20.97
2019-03-21T15:22:48.729Z,19.23
2019-03-21T15:25:21.403Z,21.63
2019-03-21T15:27:53.946Z,21.27
2019-03-21T15:30:26.269Z,18.73
2019-03-21T15:32:58.862Z,21.00
2019-03-21T15:35:31.424Z,20.70
2019-03-21T15:38:03.676Z,20.30
2019-03-21T15:40:38.098Z,20.13
2019-03-21T15:43:10.716Z,19.47
2019-03-21T15:45:44.148Z,19.90
2019-03-21T15:48:16.441Z,20.93
2019-03-21T15:50:48.710Z,18.33
2019-03-21T15:53:20.960Z,19.07
2019-03-21T15:55:53.614Z,19.40
2019-03-21T15:58:25.984Z,19.70
2019-03-21T16:00:58.458Z,20.77
2019-03-21T16:03:30.804Z,18.30
2019-03-21T16:06:03.154Z,18.50
2019-03-21T16:08:35.482Z,19.13
2019-03-21T16:11:07.898Z,17.93
2019-03-21T16:13:43.011Z,18.73
2019-03-21T16:16:15.484Z,19.30
2019-03-21T16:18:48.091Z,19.60
2019-03-21T16:21:20.440Z,19.70
2019-03-21T16:24:04.219Z,17.03
2019-03-21T16:26:26.846Z,19.43
2019-03-21T16:28:59.400Z,19.20
2019-03-21T16:31:31.806Z,20.43
2019-03-21T16:34:04.387Z,18.63
2019-03-21T16:36:36.726Z,20.23
2019-03-21T16:39:10.049Z,19.70
2019-03-21T16:41:42.319Z,19.07
2019-03-21T16:44:14.955Z,20.60
2019-03-21T16:46:47.467Z,19.87
2019-03-21T16:49:20.779Z,22.70
2019-03-21T16:51:53.195Z,21.97
2019-03-21T16:54:26.954Z,26.40
2019-03-21T16:56:59.407Z,19.37
2019-03-21T16:59:31.837Z,21.53
2019-03-21T17:02:04.398Z,22.07
2019-03-21T17:04:36.830Z,22.87
2019-03-21T17:07:09.131Z,21.60
2019-03-21T17:09:41.546Z,23.40
2019-03-21T17:12:13.923Z,23.20
2019-03-21T17:14:46.513Z,22.10
2019-03-21T17:17:19.011Z,22.40
2019-03-21T17:19:51.481Z,22.57
2019-03-21T17:22:23.942Z,22.00
2019-03-21T17:24:56.381Z,23.73
2019-03-21T17:27:29.252Z,22.90
2019-03-21T17:30:01.755Z,21.20
2019-03-21T17:32:34.383Z,22.30
2019-03-21T17:35:07.997Z,21.53
2019-03-21T17:37:40.571Z,21.83
2019-03-21T17:40:13.602Z,22.50
2019-03-21T17:42:45.960Z,21.00
2019-03-21T17:45:19.211Z,22.13
2019-03-21T17:47:51.737Z,21.23
2019-03-21T17:50:24.295Z,22.53
2019-03-21T17:52:56.879Z,20.43
2019-03-21T17:55:29.224Z,23.60
2019-03-21T17:58:01.563Z,23.63
2019-03-21T18:00:34.410Z,21.30
2019-03-21T18:03:07.833Z,24.37
2019-03-21T18:05:47.611Z,23.17
2019-03-21T18:08:20.225Z,20.60
2019-03-21T18:10:57.347Z,22.17
2019-03-21T18:13:35.020Z,21.70
2019-03-21T18:16:07.719Z,22.77
2019-03-21T18:18:40.327Z,22.23
2019-03-21T18:21:13.139Z,22.80
2019-03-21T18:23:45.749Z,20.23
2019-03-21T18:26:18.165Z,21.80
2019-03-21T18:28:50.607Z,22.13
2019-03-21T18:31:22.902Z,22.67
2019-03-21T18:33:55.438Z,24.00
2019-03-21T18:36:30.872Z,22.57
2019-03-21T18:39:03.730Z,24.07
2019-03-21T18:41:36.282Z,24.00
2019-03-21T18:44:08.674Z,24.27
2019-03-21T18:46:41.345Z,22.37
2019-03-21T18:49:13.757Z,22.70
2019-03-21T18:51:46.218Z,25.60
2019-03-21T18:54:18.653Z,23.93
2019-03-21T18:56:51.032Z,25.53
2019-03-21T18:59:23.835Z,25.90
2019-03-21T19:02:06.343Z,24.50
2019-03-21T19:04:41.864Z,25.40
2019-03-21T19:07:14.461Z,25.53
2019-03-21T19:09:47.218Z,25.23
2019-03-21T19:12:19.658Z,24.70
2019-03-21T19:14:52.092Z,26.27
2019-03-21T19:17:28.310Z,24.07
2019-03-21T19:20:03.776Z,24.57
2019-03-21T19:22:36.989Z,25.17
2019-03-21T19:25:18.586Z,25.53
2019-03-21T19:27:54.306Z,25.03
2019-03-21T19:30:31.163Z,23.73
2019-03-21T19:33:05.251Z,24.50
2019-03-21T19:35:37.487Z,27.60
2019-03-21T19:38:10.121Z,25.57
2019-03-21T19:40:42.443Z,26.10
2019-03-21T19:43:14.788Z,25.47
2019-03-21T19:45:47.221Z,27.30
2019-03-21T19:48:19.674Z,25.60
2019-03-21T19:50:52.163Z,25.33
2019-03-21T19:53:24.588Z,27.87
2019-03-21T19:56:07.974Z,28.57
2019-03-21T19:58:31.494Z,27.50
2019-03-21T20:01:03.964Z,28.90
2019-03-21T20:03:36.670Z,27.70
2019-03-21T20:06:09.281Z,28.43
2019-03-21T20:08:41.882Z,28.70
2019-03-21T20:11:14.397Z,28.37
2019-03-21T20:13:47.066Z,29.10
2019-03-21T20:16:19.564Z,30.47
2019-03-21T20:18:52.153Z,30.97
2019-03-21T20:21:24.634Z,32.17
2019-03-21T20:23:57.307Z,30.90
2019-03-21T20:26:29.694Z,29.10
2019-03-21T20:29:02.095Z,30.83
2019-03-21T20:31:34.755Z,29.03
2019-03-21T20:34:07.388Z,31.23
2019-03-21T20:37:00.461Z,31.30
2019-03-21T20:39:33.054Z,31.77
2019-03-21T20:42:05.481Z,32.53
2019-03-21T20:44:38.117Z,33.17
2019-03-21T20:47:10.440Z,32.57
2019-03-21T20:49:42.952Z,33.80
2019-03-21T20:52:15.304Z,33.73
2019-03-21T20:54:49.087Z,37.03
2019-03-21T20:57:21.461Z,35.50
2019-03-21T20:59:53.971Z,34.80
2019-03-21T21:02:27.753Z,37.10
2019-03-21T21:05:00.385Z,37.50
2019-03-21T21:07:34.195Z,37.53
2019-03-21T21:10:07.472Z,36.30
2019-03-21T21:12:39.984Z,38.27
2019-03-21T21:15:12.678Z,38.10
2019-03-21T21:17:45.049Z,38.40
2019-03-21T21:20:17.832Z,41.13
2019-03-21T21:22:50.500Z,38.47
2019-03-21T21:25:22.994Z,40.40
2019-03-21T21:27:55.498Z,39.23
2019-03-21T21:30:28.966Z,39.83
2019-03-21T21:33:01.414Z,39.43
2019-03-21T21:35:36.234Z,39.27
2019-03-21T21:38:08.855Z,39.37
2019-03-21T21:40:41.753Z,41.03
2019-03-21T21:43:14.127Z,38.83
2019-03-21T21:45:46.584Z,39.00
2019-03-21T21:48:18.979Z,38.80
2019-03-21T21:50:51.514Z,39.50
2019-03-21T21:53:23.934Z,40.23
2019-03-21T21:55:56.341Z,39.97
2019-03-21T21:58:28.736Z,40.17
2019-03-21T22:01:01.268Z,40.53
2019-03-21T22:03:33.814Z,39.60
2019-03-21T22:06:06.294Z,41.37
2019-03-21T22:08:38.550Z,42.23
2019-03-21T22:11:10.912Z,41.00
2019-03-21T22:13:43.322Z,41.93
2019-03-21T22:16:15.673Z,42.03
2019-03-21T22:18:48.292Z,40.30
2019-03-21T22:21:20.734Z,41.40
2019-03-21T22:23:53.224Z,41.47
2019-03-21T22:26:29.750Z,41.57
2019-03-21T22:28:59.652Z,44.97
2019-03-21T22:31:32.359Z,43.40
2019-03-21T22:34:04.932Z,43.13
2019-03-21T22:36:48.709Z,44.03
2019-03-21T22:39:11.499Z,39.37
2019-03-21T22:41:43.768Z,42.67
2019-03-21T22:44:16.033Z,44.97
2019-03-21T22:46:49.003Z,42.17
2019-03-21T22:49:21.584Z,44.50
2019-03-21T22:51:53.879Z,43.53
2019-03-21T22:54:26.282Z,44.80
2019-03-21T22:56:58.765Z,47.17
2019-03-21T22:59:31.201Z,44.50
2019-03-21T23:02:04.095Z,43.50
2019-03-21T23:04:37.303Z,44.67
2019-03-21T23:07:09.762Z,44.17
2019-03-21T23:09:41.970Z,41.93
2019-03-21T23:12:14.314Z,43.03
2019-03-21T23:14:47.014Z,43.60
2019-03-21T23:17:19.281Z,45.10
2019-03-21T23:19:52.032Z,44.13
2019-03-21T23:22:24.724Z,45.57
2019-03-21T23:25:00.162Z,38.50
2019-03-21T23:27:32.661Z,39.20
2019-03-21T23:30:10.756Z,40.37
2019-03-21T23:32:46.381Z,39.50
2019-03-21T23:35:19.044Z,40.70
2019-03-21T23:37:51.385Z,37.67
2019-03-21T23:40:24.076Z,36.50
2019-03-21T23:42:57.386Z,37.50
2019-03-21T23:45:29.781Z,30.90
2019-03-21T23:48:07.128Z,34.10
2019-03-21T23:50:39.205Z,31.93
2019-03-21T23:53:11.876Z,30.90
2019-03-21T23:55:44.153Z,31.30
2019-03-21T23:58:17.022Z,32.17
